sensor_id;sensor_type;location;lat;lon;timestamp;P1;durP1;ratioP1;P2;durP2;ratioP2
10132;SDS011;5106;50.926;7.080;2022-12-11T00:01:44;28.23;;;17.10;;
10132;SDS011;5106;50.926;7.080;2022-12-11T00:04:10;24.33;;;16.63;;
10132;SDS011;5106;50.926;7.080;2022-12-11T00:06:35;25.17;;;17.10;;
10132;SDS011;5106;50.926;7.080;2022-12-11T00:09:01;25.33;;;17.20;;
10132;SDS011;5106;50.926;7.080;2022-12-11T00:11:27;26.00;;;17.23;;
10132;SDS011;5106;50.926;7.080;2022-12-11T00:13:52;26.03;;;17.90;;
10132;SDS011;5106;50.926;7.080;2022-12-11T00:16:18;25.63;;;16.77;;
10132;SDS011;5106;50.926;7.080;2022-12-11T00:18:43;22.43;;;16.03;;
10132;SDS011;5106;50.926;7.080;2022-12-11T00:21:11;25.37;;;16.73;;
10132;SDS011;5106;50.926;7.080;2022-12-11T00:23:38;26.23;;;17.57;;
10132;SDS011;5106;50.926;7.080;2022-12-11T00:26:04;26.10;;;16.73;;
10132;SDS011;5106;50.926;7.080;2022-12-11T00:28:35;26.23;;;17.20;;
10132;SDS011;5106;50.926;7.080;2022-12-11T00:31:04;26.10;;;16.90;;
10132;SDS011;5106;50.926;7.080;2022-12-11T00:33:31;26.90;;;16.73;;
10132;SDS011;5106;50.926;7.080;2022-12-11T00:35:57;28.57;;;17.67;;
10132;SDS011;5106;50.926;7.080;2022-12-11T00:38:23;27.17;;;17.03;;
10132;SDS011;5106;50.926;7.080;2022-12-11T00:40:48;24.40;;;16.70;;
10132;SDS011;5106;50.926;7.080;2022-12-11T00:43:14;27.67;;;17.60;;
10132;SDS011;5106;50.926;7.080;2022-12-11T00:45:44;28.47;;;16.83;;
10132;SDS011;5106;50.926;7.080;2022-12-11T00:48:11;25.60;;;16.63;;
10132;SDS011;5106;50.926;7.080;2022-12-11T00:50:37;28.07;;;16.63;;
10132;SDS011;5106;50.926;7.080;2022-12-11T00:53:03;25.63;;;17.03;;
10132;SDS011;5106;50.926;7.080;2022-12-11T00:55:30;25.27;;;15.17;;
10132;SDS011;5106;50.926;7.080;2022-12-11T00:58:00;26.77;;;15.20;;
10132;SDS011;5106;50.926;7.080;2022-12-11T01:00:25;26.00;;;15.07;;
10132;SDS011;5106;50.926;7.080;2022-12-11T01:02:51;24.07;;;15.90;;
10132;SDS011;5106;50.926;7.080;2022-12-11T01:05:16;29.03;;;17.13;;
10132;SDS011;5106;50.926;7.080;2022-12-11T01:07:42;25.90;;;16.27;;
10132;SDS011;5106;50.926;7.080;2022-12-11T01:10:09;27.07;;;16.30;;
10132;SDS011;5106;50.926;7.080;2022-12-11T01:12:51;25.73;;;16.17;;
10132;SDS011;5106;50.926;7.080;2022-12-11T01:15:39;28.77;;;17.57;;
10132;SDS011;5106;50.926;7.080;2022-12-11T01:18:07;27.13;;;16.67;;
10132;SDS011;5106;50.926;7.080;2022-12-11T01:20:37;31.93;;;16.70;;
10132;SDS011;5106;50.926;7.080;2022-12-11T01:23:04;31.53;;;16.60;;
10132;SDS011;5106;50.926;7.080;2022-12-11T01:25:30;31.57;;;16.37;;
10132;SDS011;5106;50.926;7.080;2022-12-11T01:27:57;29.47;;;16.57;;
10132;SDS011;5106;50.926;7.080;2022-12-11T01:30:24;31.93;;;16.87;;
10132;SDS011;5106;50.926;7.080;2022-12-11T01:32:49;29.93;;;16.83;;
10132;SDS011;5106;50.926;7.080;2022-12-11T01:35:16;32.30;;;16.10;;
10132;SDS011;5106;50.926;7.080;2022-12-11T01:37:42;33.83;;;17.67;;
10132;SDS011;5106;50.926;7.080;2022-12-11T01:40:09;32.17;;;16.80;;
10132;SDS011;5106;50.926;7.080;2022-12-11T01:42:38;34.37;;;17.30;;
10132;SDS011;5106;50.926;7.080;2022-12-11T01:47:41;34.43;;;17.60;;
10132;SDS011;5106;50.926;7.080;2022-12-11T01:50:08;33.30;;;17.20;;
10132;SDS011;5106;50.926;7.080;2022-12-11T01:52:35;34.97;;;18.20;;
10132;SDS011;5106;50.926;7.080;2022-12-11T01:55:00;39.27;;;17.37;;
10132;SDS011;5106;50.926;7.080;2022-12-11T01:57:26;35.77;;;17.43;;
10132;SDS011;5106;50.926;7.080;2022-12-11T01:59:52;39.67;;;19.20;;
10132;SDS011;5106;50.926;7.080;2022-12-11T02:02:18;35.73;;;18.43;;
10132;SDS011;5106;50.926;7.080;2022-12-11T02:04:53;40.90;;;18.80;;
10132;SDS011;5106;50.926;7.080;2022-12-11T02:07:18;37.87;;;18.63;;
10132;SDS011;5106;50.926;7.080;2022-12-11T02:09:45;39.80;;;18.97;;
10132;SDS011;5106;50.926;7.080;2022-12-11T02:12:14;37.20;;;17.90;;
10132;SDS011;5106;50.926;7.080;2022-12-11T02:23:10;40.50;;;20.03;;
10132;SDS011;5106;50.926;7.080;2022-12-11T02:28:30;43.37;;;19.43;;
10132;SDS011;5106;50.926;7.080;2022-12-11T02:31:01;42.33;;;19.97;;
10132;SDS011;5106;50.926;7.080;2022-12-11T02:33:40;44.37;;;19.40;;
10132;SDS011;5106;50.926;7.080;2022-12-11T02:36:09;39.53;;;20.10;;
10132;SDS011;5106;50.926;7.080;2022-12-11T02:38:38;39.63;;;20.10;;
10132;SDS011;5106;50.926;7.080;2022-12-11T02:41:06;38.70;;;20.20;;
10132;SDS011;5106;50.926;7.080;2022-12-11T02:43:35;40.53;;;20.03;;
10132;SDS011;5106;50.926;7.080;2022-12-11T02:46:03;40.07;;;20.53;;
10132;SDS011;5106;50.926;7.080;2022-12-11T02:48:31;38.43;;;19.33;;
10132;SDS011;5106;50.926;7.080;2022-12-11T02:50:58;40.70;;;19.80;;
10132;SDS011;5106;50.926;7.080;2022-12-11T02:53:26;35.63;;;18.47;;
10132;SDS011;5106;50.926;7.080;2022-12-11T02:55:57;40.80;;;20.43;;
10132;SDS011;5106;50.926;7.080;2022-12-11T02:58:31;37.90;;;18.50;;
10132;SDS011;5106;50.926;7.080;2022-12-11T03:00:58;37.13;;;18.53;;
10132;SDS011;5106;50.926;7.080;2022-12-11T03:03:23;34.27;;;17.17;;
10132;SDS011;5106;50.926;7.080;2022-12-11T03:05:49;39.27;;;18.77;;
10132;SDS011;5106;50.926;7.080;2022-12-11T03:08:15;31.87;;;17.80;;
10132;SDS011;5106;50.926;7.080;2022-12-11T03:10:42;35.47;;;17.80;;
10132;SDS011;5106;50.926;7.080;2022-12-11T03:13:09;35.50;;;18.33;;
10132;SDS011;5106;50.926;7.080;2022-12-11T03:21:43;37.73;;;18.70;;
10132;SDS011;5106;50.926;7.080;2022-12-11T03:24:26;36.00;;;17.83;;
10132;SDS011;5106;50.926;7.080;2022-12-11T03:26:54;35.33;;;18.67;;
10132;SDS011;5106;50.926;7.080;2022-12-11T03:29:25;35.33;;;18.67;;
10132;SDS011;5106;50.926;7.080;2022-12-11T03:31:57;38.10;;;19.60;;
10132;SDS011;5106;50.926;7.080;2022-12-11T03:34:32;34.97;;;19.30;;
10132;SDS011;5106;50.926;7.080;2022-12-11T03:37:10;35.67;;;18.20;;
10132;SDS011;5106;50.926;7.080;2022-12-11T03:39:38;34.87;;;17.83;;
10132;SDS011;5106;50.926;7.080;2022-12-11T03:42:09;36.97;;;19.17;;
10132;SDS011;5106;50.926;7.080;2022-12-11T03:44:37;35.10;;;17.63;;
10132;SDS011;5106;50.926;7.080;2022-12-11T03:47:05;40.53;;;18.77;;
10132;SDS011;5106;50.926;7.080;2022-12-11T03:49:34;38.20;;;18.53;;
10132;SDS011;5106;50.926;7.080;2022-12-11T03:52:04;34.47;;;18.33;;
10132;SDS011;5106;50.926;7.080;2022-12-11T03:54:32;37.90;;;18.47;;
10132;SDS011;5106;50.926;7.080;2022-12-11T03:56:59;36.50;;;19.07;;
10132;SDS011;5106;50.926;7.080;2022-12-11T03:59:28;36.43;;;19.20;;
10132;SDS011;5106;50.926;7.080;2022-12-11T04:01:53;38.07;;;18.93;;
10132;SDS011;5106;50.926;7.080;2022-12-11T04:04:19;41.93;;;19.13;;
10132;SDS011;5106;50.926;7.080;2022-12-11T04:06:45;37.23;;;19.13;;
10132;SDS011;5106;50.926;7.080;2022-12-11T04:09:10;36.87;;;18.43;;
10132;SDS011;5106;50.926;7.080;2022-12-11T04:11:36;44.27;;;19.60;;
10132;SDS011;5106;50.926;7.080;2022-12-11T04:14:02;34.20;;;18.13;;
10132;SDS011;5106;50.926;7.080;2022-12-11T04:16:51;37.07;;;18.17;;
10132;SDS011;5106;50.926;7.080;2022-12-11T04:19:18;38.30;;;19.33;;
10132;SDS011;5106;50.926;7.080;2022-12-11T04:22:03;36.57;;;19.33;;
10132;SDS011;5106;50.926;7.080;2022-12-11T04:24:47;35.70;;;18.30;;
10132;SDS011;5106;50.926;7.080;2022-12-11T04:27:14;35.50;;;18.07;;
10132;SDS011;5106;50.926;7.080;2022-12-11T04:30:00;37.93;;;18.50;;
10132;SDS011;5106;50.926;7.080;2022-12-11T04:32:26;34.53;;;17.87;;
10132;SDS011;5106;50.926;7.080;2022-12-11T04:34:52;37.27;;;18.47;;
10132;SDS011;5106;50.926;7.080;2022-12-11T04:37:17;38.83;;;18.27;;
10132;SDS011;5106;50.926;7.080;2022-12-11T04:39:43;37.23;;;18.50;;
10132;SDS011;5106;50.926;7.080;2022-12-11T04:42:08;35.57;;;17.60;;
10132;SDS011;5106;50.926;7.080;2022-12-11T04:44:34;33.83;;;17.93;;
10132;SDS011;5106;50.926;7.080;2022-12-11T04:46:59;35.20;;;16.90;;
10132;SDS011;5106;50.926;7.080;2022-12-11T04:49:25;33.47;;;17.53;;
10132;SDS011;5106;50.926;7.080;2022-12-11T04:51:50;38.57;;;17.80;;
10132;SDS011;5106;50.926;7.080;2022-12-11T04:54:17;34.07;;;17.40;;
10132;SDS011;5106;50.926;7.080;2022-12-11T04:56:43;31.77;;;17.13;;
10132;SDS011;5106;50.926;7.080;2022-12-11T04:59:08;31.97;;;16.63;;
10132;SDS011;5106;50.926;7.080;2022-12-11T05:01:34;32.43;;;16.90;;
10132;SDS011;5106;50.926;7.080;2022-12-11T05:03:59;33.60;;;17.70;;
10132;SDS011;5106;50.926;7.080;2022-12-11T05:06:25;34.90;;;16.40;;
10132;SDS011;5106;50.926;7.080;2022-12-11T05:08:51;35.13;;;17.57;;
10132;SDS011;5106;50.926;7.080;2022-12-11T05:11:17;33.47;;;17.37;;
10132;SDS011;5106;50.926;7.080;2022-12-11T05:13:43;34.63;;;17.10;;
10132;SDS011;5106;50.926;7.080;2022-12-11T05:16:10;31.13;;;16.37;;
10132;SDS011;5106;50.926;7.080;2022-12-11T05:18:37;35.17;;;16.90;;
10132;SDS011;5106;50.926;7.080;2022-12-11T05:21:04;33.20;;;16.50;;
10132;SDS011;5106;50.926;7.080;2022-12-11T05:23:32;32.07;;;16.03;;
10132;SDS011;5106;50.926;7.080;2022-12-11T05:25:59;31.83;;;16.50;;
10132;SDS011;5106;50.926;7.080;2022-12-11T05:28:26;30.30;;;15.90;;
10132;SDS011;5106;50.926;7.080;2022-12-11T05:30:57;32.97;;;16.60;;
10132;SDS011;5106;50.926;7.080;2022-12-11T05:33:25;32.80;;;16.90;;
10132;SDS011;5106;50.926;7.080;2022-12-11T05:35:51;32.37;;;17.07;;
10132;SDS011;5106;50.926;7.080;2022-12-11T05:38:17;34.53;;;17.43;;
10132;SDS011;5106;50.926;7.080;2022-12-11T05:40:43;32.43;;;17.03;;
10132;SDS011;5106;50.926;7.080;2022-12-11T05:43:09;32.63;;;16.50;;
10132;SDS011;5106;50.926;7.080;2022-12-11T05:45:34;33.33;;;17.60;;
10132;SDS011;5106;50.926;7.080;2022-12-11T05:48:00;33.20;;;16.67;;
10132;SDS011;5106;50.926;7.080;2022-12-11T05:50:25;29.70;;;16.40;;
10132;SDS011;5106;50.926;7.080;2022-12-11T05:52:51;30.87;;;16.60;;
10132;SDS011;5106;50.926;7.080;2022-12-11T05:55:17;35.40;;;17.40;;
10132;SDS011;5106;50.926;7.080;2022-12-11T05:57:42;32.17;;;16.90;;
10132;SDS011;5106;50.926;7.080;2022-12-11T06:00:10;32.37;;;17.17;;
10132;SDS011;5106;50.926;7.080;2022-12-11T06:02:36;33.00;;;17.23;;
10132;SDS011;5106;50.926;7.080;2022-12-11T06:05:02;31.67;;;17.57;;
10132;SDS011;5106;50.926;7.080;2022-12-11T06:07:27;33.10;;;17.33;;
10132;SDS011;5106;50.926;7.080;2022-12-11T06:09:53;28.67;;;15.87;;
10132;SDS011;5106;50.926;7.080;2022-12-11T06:12:19;28.57;;;16.13;;
10132;SDS011;5106;50.926;7.080;2022-12-11T06:14:44;26.83;;;15.70;;
10132;SDS011;5106;50.926;7.080;2022-12-11T06:17:10;30.73;;;16.30;;
10132;SDS011;5106;50.926;7.080;2022-12-11T06:19:35;31.33;;;17.57;;
10132;SDS011;5106;50.926;7.080;2022-12-11T06:22:01;32.17;;;15.83;;
10132;SDS011;5106;50.926;7.080;2022-12-11T06:24:27;33.47;;;17.53;;
10132;SDS011;5106;50.926;7.080;2022-12-11T06:26:52;31.60;;;16.37;;
10132;SDS011;5106;50.926;7.080;2022-12-11T06:29:18;29.30;;;15.77;;
10132;SDS011;5106;50.926;7.080;2022-12-11T06:31:43;30.67;;;16.27;;
10132;SDS011;5106;50.926;7.080;2022-12-11T06:34:10;28.90;;;15.43;;
10132;SDS011;5106;50.926;7.080;2022-12-11T06:36:36;33.23;;;16.37;;
10132;SDS011;5106;50.926;7.080;2022-12-11T06:39:02;32.57;;;16.80;;
10132;SDS011;5106;50.926;7.080;2022-12-11T06:41:28;30.83;;;16.20;;
10132;SDS011;5106;50.926;7.080;2022-12-11T06:43:53;33.00;;;17.33;;
10132;SDS011;5106;50.926;7.080;2022-12-11T06:46:20;28.47;;;16.27;;
10132;SDS011;5106;50.926;7.080;2022-12-11T06:48:46;33.73;;;17.97;;
10132;SDS011;5106;50.926;7.080;2022-12-11T06:51:13;32.60;;;17.30;;
10132;SDS011;5106;50.926;7.080;2022-12-11T06:53:41;34.23;;;17.50;;
10132;SDS011;5106;50.926;7.080;2022-12-11T06:56:08;34.20;;;17.07;;
10132;SDS011;5106;50.926;7.080;2022-12-11T06:58:38;31.60;;;16.90;;
10132;SDS011;5106;50.926;7.080;2022-12-11T07:01:11;34.30;;;17.87;;
10132;SDS011;5106;50.926;7.080;2022-12-11T07:03:48;33.13;;;17.60;;
10132;SDS011;5106;50.926;7.080;2022-12-11T07:06:16;33.43;;;17.67;;
10132;SDS011;5106;50.926;7.080;2022-12-11T07:08:42;33.47;;;17.63;;
10132;SDS011;5106;50.926;7.080;2022-12-11T07:11:09;32.67;;;17.53;;
10132;SDS011;5106;50.926;7.080;2022-12-11T07:13:36;33.37;;;17.27;;
10132;SDS011;5106;50.926;7.080;2022-12-11T07:16:02;33.60;;;18.30;;
10132;SDS011;5106;50.926;7.080;2022-12-11T07:18:34;31.33;;;18.00;;
10132;SDS011;5106;50.926;7.080;2022-12-11T07:21:00;36.13;;;18.83;;
10132;SDS011;5106;50.926;7.080;2022-12-11T07:23:26;40.03;;;19.90;;
10132;SDS011;5106;50.926;7.080;2022-12-11T07:25:53;33.00;;;17.80;;
10132;SDS011;5106;50.926;7.080;2022-12-11T07:28:19;33.23;;;19.10;;
10132;SDS011;5106;50.926;7.080;2022-12-11T07:30:45;35.13;;;18.13;;
10132;SDS011;5106;50.926;7.080;2022-12-11T07:33:10;33.67;;;18.10;;
10132;SDS011;5106;50.926;7.080;2022-12-11T07:35:36;31.67;;;18.10;;
10132;SDS011;5106;50.926;7.080;2022-12-11T07:38:01;38.50;;;18.97;;
10132;SDS011;5106;50.926;7.080;2022-12-11T07:40:27;37.53;;;19.00;;
10132;SDS011;5106;50.926;7.080;2022-12-11T07:42:53;37.57;;;19.70;;
10132;SDS011;5106;50.926;7.080;2022-12-11T07:45:18;34.63;;;17.87;;
10132;SDS011;5106;50.926;7.080;2022-12-11T07:47:44;31.57;;;17.57;;
10132;SDS011;5106;50.926;7.080;2022-12-11T07:50:09;36.37;;;18.47;;
10132;SDS011;5106;50.926;7.080;2022-12-11T07:52:35;31.53;;;18.07;;
10132;SDS011;5106;50.926;7.080;2022-12-11T07:55:01;36.03;;;18.23;;
10132;SDS011;5106;50.926;7.080;2022-12-11T07:57:27;33.20;;;18.53;;
10132;SDS011;5106;50.926;7.080;2022-12-11T07:59:53;37.27;;;19.37;;
10132;SDS011;5106;50.926;7.080;2022-12-11T08:02:19;33.40;;;18.73;;
10132;SDS011;5106;50.926;7.080;2022-12-11T08:04:46;34.03;;;18.40;;
10132;SDS011;5106;50.926;7.080;2022-12-11T08:07:11;37.40;;;18.77;;
10132;SDS011;5106;50.926;7.080;2022-12-11T08:09:37;31.00;;;18.00;;
10132;SDS011;5106;50.926;7.080;2022-12-11T08:12:03;33.80;;;17.83;;
10132;SDS011;5106;50.926;7.080;2022-12-11T08:14:28;31.23;;;17.63;;
10132;SDS011;5106;50.926;7.080;2022-12-11T08:16:54;33.87;;;18.03;;
10132;SDS011;5106;50.926;7.080;2022-12-11T08:19:21;32.60;;;17.90;;
10132;SDS011;5106;50.926;7.080;2022-12-11T08:21:46;36.40;;;17.77;;
10132;SDS011;5106;50.926;7.080;2022-12-11T08:24:12;32.60;;;17.80;;
10132;SDS011;5106;50.926;7.080;2022-12-11T08:26:40;36.40;;;19.10;;
10132;SDS011;5106;50.926;7.080;2022-12-11T08:29:06;35.63;;;18.40;;
10132;SDS011;5106;50.926;7.080;2022-12-11T08:31:31;38.27;;;18.70;;
10132;SDS011;5106;50.926;7.080;2022-12-11T08:33:57;36.37;;;19.13;;
10132;SDS011;5106;50.926;7.080;2022-12-11T08:36:23;34.53;;;18.50;;
10132;SDS011;5106;50.926;7.080;2022-12-11T08:38:50;36.30;;;18.63;;
10132;SDS011;5106;50.926;7.080;2022-12-11T08:41:26;34.10;;;17.67;;
10132;SDS011;5106;50.926;7.080;2022-12-11T08:43:54;34.63;;;18.77;;
10132;SDS011;5106;50.926;7.080;2022-12-11T08:46:22;32.70;;;18.43;;
10132;SDS011;5106;50.926;7.080;2022-12-11T08:48:50;34.83;;;19.13;;
10132;SDS011;5106;50.926;7.080;2022-12-11T08:51:16;35.00;;;19.00;;
10132;SDS011;5106;50.926;7.080;2022-12-11T08:53:44;33.73;;;18.53;;
10132;SDS011;5106;50.926;7.080;2022-12-11T08:56:15;35.63;;;19.37;;
10132;SDS011;5106;50.926;7.080;2022-12-11T08:58:42;35.40;;;18.03;;
10132;SDS011;5106;50.926;7.080;2022-12-11T09:01:13;31.50;;;17.50;;
10132;SDS011;5106;50.926;7.080;2022-12-11T09:03:56;35.43;;;19.07;;
10132;SDS011;5106;50.926;7.080;2022-12-11T09:06:23;32.97;;;17.20;;
10132;SDS011;5106;50.926;7.080;2022-12-11T09:08:50;35.40;;;18.13;;
10132;SDS011;5106;50.926;7.080;2022-12-11T09:11:21;33.40;;;18.60;;
10132;SDS011;5106;50.926;7.080;2022-12-11T09:13:48;34.13;;;18.20;;
10132;SDS011;5106;50.926;7.080;2022-12-11T09:16:15;37.50;;;18.27;;
10132;SDS011;5106;50.926;7.080;2022-12-11T09:18:47;35.07;;;18.27;;
10132;SDS011;5106;50.926;7.080;2022-12-11T09:21:14;33.27;;;18.27;;
10132;SDS011;5106;50.926;7.080;2022-12-11T09:23:41;34.53;;;19.07;;
10132;SDS011;5106;50.926;7.080;2022-12-11T09:26:09;33.23;;;17.87;;
10132;SDS011;5106;50.926;7.080;2022-12-11T09:28:36;33.40;;;18.03;;
10132;SDS011;5106;50.926;7.080;2022-12-11T09:33:47;32.83;;;17.77;;
10132;SDS011;5106;50.926;7.080;2022-12-11T09:36:13;33.00;;;17.43;;
10132;SDS011;5106;50.926;7.080;2022-12-11T09:38:39;36.80;;;18.47;;
10132;SDS011;5106;50.926;7.080;2022-12-11T09:43:43;38.23;;;19.43;;
10132;SDS011;5106;50.926;7.080;2022-12-11T09:46:14;41.97;;;20.50;;
10132;SDS011;5106;50.926;7.080;2022-12-11T09:48:42;41.90;;;19.90;;
10132;SDS011;5106;50.926;7.080;2022-12-11T09:51:17;37.57;;;19.43;;
10132;SDS011;5106;50.926;7.080;2022-12-11T09:54:00;42.10;;;19.97;;
10132;SDS011;5106;50.926;7.080;2022-12-11T09:56:44;41.57;;;20.73;;
10132;SDS011;5106;50.926;7.080;2022-12-11T10:01:57;41.03;;;21.00;;
10132;SDS011;5106;50.926;7.080;2022-12-11T10:05:06;43.37;;;21.70;;
10132;SDS011;5106;50.926;7.080;2022-12-11T10:07:52;45.93;;;22.23;;
10132;SDS011;5106;50.926;7.080;2022-12-11T10:13:12;40.83;;;21.10;;
10132;SDS011;5106;50.926;7.080;2022-12-11T10:15:57;40.90;;;21.43;;
10132;SDS011;5106;50.926;7.080;2022-12-11T10:18:28;42.83;;;21.47;;
10132;SDS011;5106;50.926;7.080;2022-12-11T10:20:55;40.47;;;21.63;;
10132;SDS011;5106;50.926;7.080;2022-12-11T10:23:23;41.27;;;22.60;;
10132;SDS011;5106;50.926;7.080;2022-12-11T10:26:01;40.17;;;22.67;;
10132;SDS011;5106;50.926;7.080;2022-12-11T10:28:28;47.77;;;22.10;;
10132;SDS011;5106;50.926;7.080;2022-12-11T10:31:07;43.00;;;22.23;;
10132;SDS011;5106;50.926;7.080;2022-12-11T10:36:27;40.00;;;21.47;;
10132;SDS011;5106;50.926;7.080;2022-12-11T10:38:58;42.73;;;21.60;;
10132;SDS011;5106;50.926;7.080;2022-12-11T10:41:36;44.53;;;22.10;;
10132;SDS011;5106;50.926;7.080;2022-12-11T10:47:03;40.23;;;20.70;;
10132;SDS011;5106;50.926;7.080;2022-12-11T10:49:32;39.03;;;20.27;;
10132;SDS011;5106;50.926;7.080;2022-12-11T10:51:58;39.60;;;21.57;;
10132;SDS011;5106;50.926;7.080;2022-12-11T10:54:28;43.37;;;21.80;;
10132;SDS011;5106;50.926;7.080;2022-12-11T10:57:00;41.47;;;20.47;;
10132;SDS011;5106;50.926;7.080;2022-12-11T10:59:38;42.93;;;20.63;;
10132;SDS011;5106;50.926;7.080;2022-12-11T11:02:17;42.00;;;21.20;;
10132;SDS011;5106;50.926;7.080;2022-12-11T11:04:52;38.03;;;19.80;;
10132;SDS011;5106;50.926;7.080;2022-12-11T11:07:21;41.23;;;21.53;;
10132;SDS011;5106;50.926;7.080;2022-12-11T11:09:49;38.70;;;21.10;;
10132;SDS011;5106;50.926;7.080;2022-12-11T11:12:26;35.90;;;18.30;;
10132;SDS011;5106;50.926;7.080;2022-12-11T11:15:03;35.23;;;18.43;;
10132;SDS011;5106;50.926;7.080;2022-12-11T11:17:51;35.60;;;18.77;;
10132;SDS011;5106;50.926;7.080;2022-12-11T11:20:19;36.73;;;18.20;;
10132;SDS011;5106;50.926;7.080;2022-12-11T11:23:10;34.77;;;18.40;;
10132;SDS011;5106;50.926;7.080;2022-12-11T11:25:43;33.67;;;17.43;;
10132;SDS011;5106;50.926;7.080;2022-12-11T11:31:15;31.10;;;16.40;;
10132;SDS011;5106;50.926;7.080;2022-12-11T11:33:45;33.57;;;17.17;;
10132;SDS011;5106;50.926;7.080;2022-12-11T11:36:22;33.03;;;17.47;;
10132;SDS011;5106;50.926;7.080;2022-12-11T11:39:02;32.47;;;17.23;;
10132;SDS011;5106;50.926;7.080;2022-12-11T11:41:59;33.13;;;16.27;;
10132;SDS011;5106;50.926;7.080;2022-12-11T11:44:36;31.97;;;16.63;;
10132;SDS011;5106;50.926;7.080;2022-12-11T11:47:25;27.13;;;15.37;;
10132;SDS011;5106;50.926;7.080;2022-12-11T11:52:59;31.13;;;16.20;;
10132;SDS011;5106;50.926;7.080;2022-12-11T11:58:38;26.90;;;15.07;;
10132;SDS011;5106;50.926;7.080;2022-12-11T12:01:15;28.40;;;14.93;;
10132;SDS011;5106;50.926;7.080;2022-12-11T12:03:43;29.77;;;15.47;;
10132;SDS011;5106;50.926;7.080;2022-12-11T12:08:51;27.70;;;15.23;;
10132;SDS011;5106;50.926;7.080;2022-12-11T12:27:31;27.27;;;13.70;;
10132;SDS011;5106;50.926;7.080;2022-12-11T12:30:02;27.40;;;15.50;;
10132;SDS011;5106;50.926;7.080;2022-12-11T12:43:46;27.80;;;15.20;;
10132;SDS011;5106;50.926;7.080;2022-12-11T12:46:49;27.50;;;15.10;;
10132;SDS011;5106;50.926;7.080;2022-12-11T12:51:57;27.27;;;14.73;;
10132;SDS011;5106;50.926;7.080;2022-12-11T12:54:24;26.87;;;15.10;;
10132;SDS011;5106;50.926;7.080;2022-12-11T12:56:51;27.30;;;14.97;;
10132;SDS011;5106;50.926;7.080;2022-12-11T12:59:19;25.90;;;14.37;;
10132;SDS011;5106;50.926;7.080;2022-12-11T13:02:05;25.97;;;14.47;;
10132;SDS011;5106;50.926;7.080;2022-12-11T13:07:17;27.43;;;14.07;;
10132;SDS011;5106;50.926;7.080;2022-12-11T13:09:54;28.53;;;14.73;;
10132;SDS011;5106;50.926;7.080;2022-12-11T13:12:33;26.67;;;14.23;;
10132;SDS011;5106;50.926;7.080;2022-12-11T13:15:22;26.00;;;14.60;;
10132;SDS011;5106;50.926;7.080;2022-12-11T13:17:50;24.63;;;14.60;;
10132;SDS011;5106;50.926;7.080;2022-12-11T13:20:17;24.07;;;13.73;;
10132;SDS011;5106;50.926;7.080;2022-12-11T13:22:48;27.13;;;15.50;;
10132;SDS011;5106;50.926;7.080;2022-12-11T13:25:48;25.67;;;13.40;;
10132;SDS011;5106;50.926;7.080;2022-12-11T13:31:06;23.73;;;13.07;;
10132;SDS011;5106;50.926;7.080;2022-12-11T13:34:01;25.27;;;14.27;;
10132;SDS011;5106;50.926;7.080;2022-12-11T13:36:45;23.17;;;13.13;;
10132;SDS011;5106;50.926;7.080;2022-12-11T13:39:25;26.70;;;14.83;;
10132;SDS011;5106;50.926;7.080;2022-12-11T13:41:54;23.17;;;14.43;;
10132;SDS011;5106;50.926;7.080;2022-12-11T13:44:33;24.33;;;14.07;;
10132;SDS011;5106;50.926;7.080;2022-12-11T13:47:03;26.90;;;15.17;;
10132;SDS011;5106;50.926;7.080;2022-12-11T13:49:35;26.93;;;14.73;;
10132;SDS011;5106;50.926;7.080;2022-12-11T13:52:04;23.73;;;13.83;;
10132;SDS011;5106;50.926;7.080;2022-12-11T13:54:32;25.70;;;13.73;;
10132;SDS011;5106;50.926;7.080;2022-12-11T13:57:02;27.87;;;14.53;;
10132;SDS011;5106;50.926;7.080;2022-12-11T14:01:59;26.70;;;14.50;;
10132;SDS011;5106;50.926;7.080;2022-12-11T14:04:48;29.10;;;15.27;;
10132;SDS011;5106;50.926;7.080;2022-12-11T14:07:30;27.20;;;13.40;;
10132;SDS011;5106;50.926;7.080;2022-12-11T14:10:00;21.87;;;13.47;;
10132;SDS011;5106;50.926;7.080;2022-12-11T14:12:33;25.70;;;14.60;;
10132;SDS011;5106;50.926;7.080;2022-12-11T14:14:59;26.17;;;14.10;;
10132;SDS011;5106;50.926;7.080;2022-12-11T14:17:28;25.43;;;13.70;;
10132;SDS011;5106;50.926;7.080;2022-12-11T14:19:56;24.87;;;13.63;;
10132;SDS011;5106;50.926;7.080;2022-12-11T14:22:25;24.77;;;13.33;;
10132;SDS011;5106;50.926;7.080;2022-12-11T14:25:00;27.63;;;13.00;;
10132;SDS011;5106;50.926;7.080;2022-12-11T14:27:45;25.50;;;13.83;;
10132;SDS011;5106;50.926;7.080;2022-12-11T14:30:18;24.63;;;13.77;;
10132;SDS011;5106;50.926;7.080;2022-12-11T14:32:45;25.43;;;13.70;;
10132;SDS011;5106;50.926;7.080;2022-12-11T14:35:34;26.03;;;13.93;;
10132;SDS011;5106;50.926;7.080;2022-12-11T14:38:01;25.20;;;13.23;;
10132;SDS011;5106;50.926;7.080;2022-12-11T14:40:34;21.50;;;12.27;;
10132;SDS011;5106;50.926;7.080;2022-12-11T14:43:07;24.03;;;13.27;;
10132;SDS011;5106;50.926;7.080;2022-12-11T14:45:55;20.73;;;12.97;;
10132;SDS011;5106;50.926;7.080;2022-12-11T14:48:25;22.60;;;12.93;;
10132;SDS011;5106;50.926;7.080;2022-12-11T14:50:56;23.80;;;13.33;;
10132;SDS011;5106;50.926;7.080;2022-12-11T14:53:25;23.40;;;13.23;;
10132;SDS011;5106;50.926;7.080;2022-12-11T14:56:07;22.30;;;12.87;;
10132;SDS011;5106;50.926;7.080;2022-12-11T14:58:41;22.67;;;12.47;;
10132;SDS011;5106;50.926;7.080;2022-12-11T15:03:48;21.37;;;12.37;;
10132;SDS011;5106;50.926;7.080;2022-12-11T15:06:21;20.90;;;12.07;;
10132;SDS011;5106;50.926;7.080;2022-12-11T15:08:55;21.03;;;12.20;;
10132;SDS011;5106;50.926;7.080;2022-12-11T15:11:21;21.37;;;10.90;;
10132;SDS011;5106;50.926;7.080;2022-12-11T15:13:58;23.63;;;12.00;;
10132;SDS011;5106;50.926;7.080;2022-12-11T15:16:27;22.43;;;12.50;;
10132;SDS011;5106;50.926;7.080;2022-12-11T15:18:57;22.30;;;12.10;;
10132;SDS011;5106;50.926;7.080;2022-12-11T15:21:28;22.40;;;12.00;;
10132;SDS011;5106;50.926;7.080;2022-12-11T15:23:57;23.70;;;12.87;;
10132;SDS011;5106;50.926;7.080;2022-12-11T15:26:34;22.20;;;12.47;;
10132;SDS011;5106;50.926;7.080;2022-12-11T15:29:04;22.80;;;12.20;;
10132;SDS011;5106;50.926;7.080;2022-12-11T15:37:20;22.37;;;12.83;;
10132;SDS011;5106;50.926;7.080;2022-12-11T15:39:57;20.93;;;12.97;;
10132;SDS011;5106;50.926;7.080;2022-12-11T15:42:25;24.03;;;13.03;;
10132;SDS011;5106;50.926;7.080;2022-12-11T15:44:52;21.37;;;12.10;;
10132;SDS011;5106;50.926;7.080;2022-12-11T15:47:20;19.93;;;12.27;;
10132;SDS011;5106;50.926;7.080;2022-12-11T15:49:48;18.93;;;11.03;;
10132;SDS011;5106;50.926;7.080;2022-12-11T15:52:14;23.33;;;13.07;;
10132;SDS011;5106;50.926;7.080;2022-12-11T15:54:40;21.17;;;12.60;;
10132;SDS011;5106;50.926;7.080;2022-12-11T15:57:08;22.03;;;12.57;;
10132;SDS011;5106;50.926;7.080;2022-12-11T15:59:38;22.30;;;12.73;;
10132;SDS011;5106;50.926;7.080;2022-12-11T16:02:08;21.30;;;12.17;;
10132;SDS011;5106;50.926;7.080;2022-12-11T16:04:37;21.27;;;12.57;;
10132;SDS011;5106;50.926;7.080;2022-12-11T16:07:04;19.93;;;11.67;;
10132;SDS011;5106;50.926;7.080;2022-12-11T16:09:35;21.27;;;12.60;;
10132;SDS011;5106;50.926;7.080;2022-12-11T16:12:01;20.03;;;11.87;;
10132;SDS011;5106;50.926;7.080;2022-12-11T16:14:27;22.73;;;13.23;;
10132;SDS011;5106;50.926;7.080;2022-12-11T16:16:52;21.10;;;12.53;;
10132;SDS011;5106;50.926;7.080;2022-12-11T16:19:18;19.20;;;11.63;;
10132;SDS011;5106;50.926;7.080;2022-12-11T16:21:43;21.30;;;12.43;;
10132;SDS011;5106;50.926;7.080;2022-12-11T16:24:09;24.13;;;12.57;;